createdAt,value
2018-09-24T00:01:49.777Z,10.60
2018-09-24T00:04:17.931Z,10.60
2018-09-24T00:06:46.091Z,10.70
2018-09-24T00:09:14.264Z,10.70
2018-09-24T00:11:42.472Z,10.80
2018-09-24T00:14:10.641Z,10.90
2018-09-24T00:16:38.841Z,10.90
2018-09-24T00:19:07.726Z,10.80
2018-09-24T00:21:35.881Z,10.70
2018-09-24T00:24:04.132Z,10.60
2018-09-24T00:26:32.387Z,10.40
2018-09-24T00:29:00.471Z,10.40
2018-09-24T00:31:28.793Z,10.40
2018-09-24T00:33:56.877Z,10.30
2018-09-24T00:36:25.036Z,10.40
2018-09-24T00:38:53.188Z,10.40
2018-09-24T00:41:21.393Z,10.50
2018-09-24T00:43:49.551Z,10.40
2018-09-24T00:46:17.700Z,10.40
2018-09-24T00:48:45.793Z,10.40
2018-09-24T00:51:14.053Z,10.30
2018-09-24T00:53:42.216Z,10.30
2018-09-24T00:56:10.366Z,10.40
2018-09-24T00:58:38.607Z,10.30
2018-09-24T01:01:06.787Z,10.30
2018-09-24T01:03:34.914Z,10.20
2018-09-24T01:06:03.126Z,10.20
2018-09-24T01:08:31.243Z,10.20
2018-09-24T01:10:59.424Z,10.30
2018-09-24T01:13:27.566Z,10.30
2018-09-24T01:15:55.672Z,10.30
2018-09-24T01:18:23.816Z,10.40
2018-09-24T01:20:51.935Z,10.50
2018-09-24T01:23:20.152Z,10.50
2018-09-24T01:25:48.317Z,10.30
2018-09-24T01:28:16.568Z,10.40
2018-09-24T01:30:44.723Z,10.40
2018-09-24T01:33:12.877Z,10.50
2018-09-24T01:35:41.060Z,10.40
2018-09-24T01:38:09.337Z,10.40
2018-09-24T01:40:37.524Z,10.40
2018-09-24T01:43:05.735Z,10.40
2018-09-24T01:45:33.843Z,10.30
2018-09-24T01:48:01.932Z,10.30
2018-09-24T01:50:30.082Z,10.30
2018-09-24T01:53:03.988Z,10.30
2018-09-24T01:55:32.139Z,10.40
2018-09-24T01:58:00.337Z,10.40
2018-09-24T02:00:28.448Z,10.40
2018-09-24T02:02:56.621Z,10.30
2018-09-24T02:05:24.923Z,10.30
2018-09-24T02:07:53.058Z,10.30
2018-09-24T02:10:24.834Z,10.30
2018-09-24T02:12:54.947Z,10.10
2018-09-24T02:15:30.466Z,10.20
2018-09-24T02:17:58.831Z,10.20
2018-09-24T02:20:27.102Z,10.10
2018-09-24T02:22:55.250Z,10.20
2018-09-24T02:25:23.415Z,10.20
2018-09-24T02:27:51.655Z,10.20
2018-09-24T02:30:20.172Z,10.20
2018-09-24T02:32:48.328Z,10.20
2018-09-24T02:35:16.471Z,10.10
2018-09-24T02:37:44.614Z,10.10
2018-09-24T02:40:25.209Z,10.10
2018-09-24T02:42:53.376Z,10.10
2018-09-24T02:45:21.611Z,10.10
2018-09-24T02:47:49.763Z,10.10
2018-09-24T02:50:17.884Z,10.10
2018-09-24T02:52:46.045Z,10.10
2018-09-24T02:55:16.935Z,10.10
2018-09-24T02:57:45.387Z,10.10
2018-09-24T03:00:20.075Z,10.10
2018-09-24T03:02:48.225Z,10.10
2018-09-24T03:05:16.388Z,10.20
2018-09-24T03:07:44.544Z,10.00
2018-09-24T03:10:12.647Z,10.00
2018-09-24T03:12:48.672Z,10.20
2018-09-24T03:15:16.820Z,10.10
2018-09-24T03:17:45.043Z,10.10
2018-09-24T03:20:13.280Z,10.10
2018-09-24T03:22:41.396Z,10.10
2018-09-24T03:25:16.229Z,10.00
2018-09-24T03:27:44.566Z,10.20
2018-09-24T03:30:13.302Z,10.20
2018-09-24T03:32:41.509Z,10.20
2018-09-24T03:35:09.707Z,10.00
2018-09-24T03:37:37.830Z,10.00
2018-09-24T03:40:06.020Z,10.10
2018-09-24T03:42:34.198Z,10.10
2018-09-24T03:45:02.380Z,10.10
2018-09-24T03:47:30.675Z,10.10
2018-09-24T03:49:58.832Z,10.20
2018-09-24T03:52:27.007Z,10.20
2018-09-24T03:54:55.168Z,10.30
2018-09-24T03:57:23.268Z,10.30
2018-09-24T03:59:51.416Z,10.20
2018-09-24T04:02:19.540Z,10.20
2018-09-24T04:04:53.419Z,10.20
2018-09-24T04:07:27.291Z,10.10
2018-09-24T04:10:01.252Z,10.10
2018-09-24T04:12:34.768Z,10.10
2018-09-24T04:15:08.475Z,10.00
2018-09-24T04:17:42.212Z,9.90
2018-09-24T04:20:16.059Z,9.80
2018-09-24T04:22:49.876Z,9.80
2018-09-24T04:25:23.519Z,9.80
2018-09-24T04:27:57.257Z,9.80
2018-09-24T04:30:30.979Z,9.80
2018-09-24T04:33:04.813Z,9.70
2018-09-24T04:35:38.588Z,9.70
2018-09-24T04:38:12.266Z,9.60
2018-09-24T04:40:46.089Z,9.60
2018-09-24T04:43:19.940Z,9.60
2018-09-24T04:45:53.757Z,9.60
2018-09-24T04:48:27.436Z,9.60
2018-09-24T04:51:01.202Z,9.60
2018-09-24T04:53:34.867Z,9.50
2018-09-24T04:56:08.823Z,9.50
2018-09-24T04:58:42.551Z,9.60
2018-09-24T05:01:16.270Z,9.50
2018-09-24T05:03:49.951Z,9.50
2018-09-24T05:06:23.644Z,9.40
2018-09-24T05:08:57.513Z,9.40
2018-09-24T05:11:31.181Z,9.40
2018-09-24T05:14:04.903Z,9.50
2018-09-24T05:16:38.620Z,9.60
2018-09-24T05:19:12.420Z,9.60
2018-09-24T05:21:46.290Z,9.50
2018-09-24T05:24:20.095Z,9.60
2018-09-24T05:26:53.906Z,9.60
2018-09-24T05:29:27.892Z,9.60
2018-09-24T05:32:01.802Z,9.60
2018-09-24T05:34:35.815Z,9.60
2018-09-24T05:37:09.621Z,9.70
2018-09-24T05:39:43.346Z,9.60
2018-09-24T05:42:16.999Z,9.50
2018-09-24T05:44:50.799Z,9.50
2018-09-24T05:47:25.215Z,9.50
2018-09-24T05:49:59.929Z,9.60
2018-09-24T05:52:33.687Z,9.60
2018-09-24T05:55:07.401Z,9.50
2018-09-24T05:57:41.290Z,9.50
2018-09-24T06:00:15.082Z,9.50
2018-09-24T06:02:48.832Z,9.40
2018-09-24T06:05:22.564Z,9.40
2018-09-24T06:07:56.507Z,9.40
2018-09-24T06:10:30.451Z,9.50
2018-09-24T06:13:04.208Z,9.50
2018-09-24T06:15:38.152Z,9.50
2018-09-24T06:18:12.121Z,9.60
2018-09-24T06:20:45.889Z,9.60
2018-09-24T06:23:19.792Z,9.70
2018-09-24T06:25:53.505Z,9.70
2018-09-24T06:28:27.493Z,9.70
2018-09-24T06:31:01.439Z,9.80
2018-09-24T06:33:35.286Z,9.70
2018-09-24T06:36:09.045Z,9.80
2018-09-24T06:38:42.840Z,9.70
2018-09-24T06:41:16.740Z,9.80
2018-09-24T06:43:50.428Z,9.80
2018-09-24T06:46:24.242Z,9.90
2018-09-24T06:48:57.974Z,9.80
2018-09-24T06:51:31.843Z,9.80
2018-09-24T06:54:05.838Z,9.90
2018-09-24T06:56:39.726Z,9.90
2018-09-24T06:59:13.460Z,9.90
2018-09-24T07:01:47.371Z,9.90
2018-09-24T07:04:21.299Z,10.00
2018-09-24T07:06:55.190Z,10.10
2018-09-24T07:09:29.018Z,10.20
2018-09-24T07:12:02.763Z,10.10
2018-09-24T07:14:36.490Z,10.00
2018-09-24T07:17:10.199Z,10.10
2018-09-24T07:19:43.884Z,10.20
2018-09-24T07:22:17.808Z,10.30
2018-09-24T07:24:51.625Z,10.30
2018-09-24T07:27:25.633Z,10.10
2018-09-24T07:29:59.429Z,10.10
2018-09-24T07:32:33.172Z,10.10
2018-09-24T07:35:07.590Z,10.30
2018-09-24T07:37:41.608Z,10.40
2018-09-24T07:40:15.531Z,10.50
2018-09-24T07:42:49.287Z,10.50
2018-09-24T07:45:22.962Z,10.60
2018-09-24T07:47:56.701Z,10.70
2018-09-24T07:50:30.564Z,10.80
2018-09-24T07:53:04.317Z,10.90
2018-09-24T07:55:38.240Z,10.90
2018-09-24T07:58:12.135Z,11.00
2018-09-24T08:00:45.920Z,11.10
2018-09-24T08:03:19.761Z,11.20
2018-09-24T08:05:53.540Z,11.10
2018-09-24T08:08:27.326Z,11.00
2018-09-24T08:11:01.029Z,11.00
2018-09-24T08:13:34.928Z,11.00
2018-09-24T08:16:08.747Z,11.20
2018-09-24T08:18:42.575Z,11.20
2018-09-24T08:21:16.375Z,11.10
2018-09-24T08:23:50.109Z,11.10
2018-09-24T08:26:23.925Z,11.10
2018-09-24T08:28:57.922Z,11.10
2018-09-24T08:31:31.632Z,11.20
2018-09-24T08:34:05.401Z,11.10
2018-09-24T08:36:40.162Z,11.20
2018-09-24T08:39:14.173Z,11.40
2018-09-24T08:41:48.154Z,11.40
2018-09-24T08:44:21.992Z,11.50
2018-09-24T08:46:55.647Z,11.50
2018-09-24T08:49:29.451Z,11.40
2018-09-24T08:52:03.311Z,11.60
2018-09-24T08:54:37.164Z,11.70
2018-09-24T08:57:11.798Z,11.80
2018-09-24T08:59:45.697Z,11.90
2018-09-24T09:02:19.578Z,12.00
2018-09-24T09:04:53.219Z,11.90
2018-09-24T09:07:27.124Z,11.80
2018-09-24T09:10:00.990Z,11.80
2018-09-24T09:12:34.663Z,12.00
2018-09-24T09:15:08.655Z,12.10
2018-09-24T09:17:42.484Z,12.00
2018-09-24T09:20:16.307Z,12.10
2018-09-24T09:22:50.168Z,12.20
2018-09-24T09:25:23.912Z,12.00
2018-09-24T09:27:57.752Z,12.00
2018-09-24T09:30:31.505Z,12.30
2018-09-24T09:33:05.431Z,12.30
2018-09-24T09:35:39.317Z,12.20
2018-09-24T09:38:13.069Z,12.30
2018-09-24T09:40:46.958Z,12.40
2018-09-24T09:43:20.705Z,12.40
2018-09-24T09:45:54.577Z,12.50
2018-09-24T09:48:28.473Z,12.60
2018-09-24T09:51:02.169Z,12.50
2018-09-24T09:53:36.110Z,12.40
2018-09-24T09:56:09.946Z,12.30
2018-09-24T09:58:43.770Z,12.40
2018-09-24T10:01:17.695Z,12.60
2018-09-24T10:03:51.314Z,12.70
2018-09-24T10:06:25.007Z,12.70
2018-09-24T10:08:58.733Z,12.80
2018-09-24T10:11:32.700Z,12.90
2018-09-24T10:14:06.352Z,13.00
2018-09-24T10:16:40.048Z,13.20
2018-09-24T10:19:13.732Z,13.20
2018-09-24T10:21:47.482Z,13.30
2018-09-24T10:24:21.699Z,12.80
2018-09-24T10:26:55.439Z,12.70
2018-09-24T10:29:29.170Z,12.80
2018-09-24T10:32:02.876Z,13.10
2018-09-24T10:34:36.723Z,13.40
2018-09-24T10:37:10.452Z,13.50
2018-09-24T10:39:44.213Z,13.40
2018-09-24T10:42:17.957Z,13.10
2018-09-24T10:44:51.744Z,13.00
2018-09-24T10:47:25.533Z,12.80
2018-09-24T10:49:59.419Z,12.90
2018-09-24T10:52:33.040Z,13.00
2018-09-24T10:55:06.827Z,12.90
2018-09-24T10:57:40.910Z,13.00
2018-09-24T11:00:14.765Z,13.10
2018-09-24T11:02:48.497Z,13.40
2018-09-24T11:05:22.340Z,13.50
2018-09-24T11:07:56.208Z,13.40
2018-09-24T11:10:29.992Z,13.50
2018-09-24T11:13:03.673Z,13.50
2018-09-24T11:15:37.483Z,13.50
2018-09-24T11:18:11.138Z,13.60
2018-09-24T11:20:44.886Z,13.30
2018-09-24T11:23:18.737Z,13.50
2018-09-24T11:25:52.525Z,13.50
2018-09-24T11:28:26.432Z,13.80
2018-09-24T11:31:00.166Z,13.60
2018-09-24T11:33:33.959Z,13.60
2018-09-24T11:36:07.802Z,13.70
2018-09-24T11:38:41.629Z,13.80
2018-09-24T11:41:15.438Z,13.90
2018-09-24T11:43:49.243Z,13.70
2018-09-24T11:46:22.894Z,13.50
2018-09-24T11:48:56.592Z,13.60
2018-09-24T11:51:30.509Z,13.60
2018-09-24T11:54:04.414Z,13.70
2018-09-24T11:56:38.217Z,13.50
2018-09-24T11:59:11.947Z,13.50
2018-09-24T12:01:45.689Z,13.70
2018-09-24T12:04:19.483Z,13.80
2018-09-24T12:06:53.362Z,13.70
2018-09-24T12:09:27.336Z,13.70
2018-09-24T12:12:01.125Z,13.70
2018-09-24T12:14:35.051Z,13.40
2018-09-24T12:17:08.966Z,13.40
2018-09-24T12:19:42.686Z,13.50
2018-09-24T12:22:16.427Z,13.70
2018-09-24T12:24:50.133Z,14.10
2018-09-24T12:27:23.972Z,14.20
2018-09-24T12:29:57.758Z,14.10
2018-09-24T12:32:31.695Z,14.00
2018-09-24T12:35:05.478Z,13.90
2018-09-24T12:37:39.292Z,13.90
2018-09-24T12:40:13.255Z,13.80
2018-09-24T12:42:47.125Z,13.80
2018-09-24T12:45:21.015Z,13.90
2018-09-24T12:47:55.834Z,14.10
2018-09-24T12:50:29.430Z,14.30
2018-09-24T12:53:03.340Z,14.50
2018-09-24T12:55:36.988Z,14.60
2018-09-24T12:58:10.739Z,14.30
2018-09-24T13:00:44.491Z,14.30
2018-09-24T13:03:18.501Z,14.40
2018-09-24T13:05:52.237Z,14.40
2018-09-24T13:08:26.211Z,14.30
2018-09-24T13:11:00.082Z,14.10
2018-09-24T13:13:33.897Z,13.90
2018-09-24T13:16:07.571Z,13.60
2018-09-24T13:18:41.398Z,13.70
2018-09-24T13:21:15.276Z,13.80
2018-09-24T13:23:49.207Z,13.80
2018-09-24T13:26:22.841Z,13.80
2018-09-24T13:28:56.620Z,13.80
2018-09-24T13:31:30.366Z,13.90
2018-09-24T13:34:04.088Z,13.70
2018-09-24T13:36:37.807Z,13.90
2018-09-24T13:39:13.756Z,14.00
2018-09-24T13:41:48.474Z,14.10
2018-09-24T13:44:22.333Z,14.40
2018-09-24T13:46:55.993Z,14.60
2018-09-24T13:49:29.858Z,14.60
2018-09-24T13:52:03.560Z,14.70
2018-09-24T13:54:37.274Z,14.50
2018-09-24T13:57:11.410Z,14.40
2018-09-24T13:59:45.230Z,14.20
2018-09-24T14:02:19.059Z,14.10
2018-09-24T14:04:52.942Z,14.10
2018-09-24T14:07:26.764Z,14.10
2018-09-24T14:10:00.733Z,14.10
2018-09-24T14:12:34.332Z,14.10
2018-09-24T14:15:07.989Z,14.10
2018-09-24T14:17:41.694Z,14.30
2018-09-24T14:20:15.573Z,14.30
2018-09-24T14:22:49.260Z,14.50
2018-09-24T14:25:23.198Z,14.70
2018-09-24T14:27:57.066Z,14.60
2018-09-24T14:30:30.732Z,14.40
2018-09-24T14:33:04.459Z,14.40
2018-09-24T14:35:38.258Z,14.40
2018-09-24T14:38:12.272Z,14.50
2018-09-24T14:40:46.201Z,14.70
2018-09-24T14:43:19.929Z,14.80
2018-09-24T14:45:53.938Z,14.70
2018-09-24T14:48:27.871Z,15.10
2018-09-24T14:51:01.748Z,15.80
2018-09-24T14:53:36.237Z,16.80
2018-09-24T14:56:10.054Z,16.90
2018-09-24T14:58:43.797Z,16.80
2018-09-24T15:01:17.669Z,16.60
2018-09-24T15:03:51.507Z,16.00
2018-09-24T15:06:25.290Z,16.70
2018-09-24T15:08:59.147Z,16.90
2018-09-24T15:11:32.949Z,16.50
2018-09-24T15:14:06.880Z,16.40
2018-09-24T15:16:40.609Z,16.30
2018-09-24T15:19:14.573Z,16.40
2018-09-24T15:21:48.614Z,16.00
2018-09-24T15:24:22.434Z,15.90
2018-09-24T15:26:56.227Z,15.60
2018-09-24T15:29:30.120Z,15.80
2018-09-24T15:32:03.800Z,15.60
2018-09-24T15:34:37.670Z,15.00
2018-09-24T15:37:11.495Z,14.80
2018-09-24T15:39:45.294Z,14.70
2018-09-24T15:42:19.767Z,14.80
2018-09-24T15:44:53.627Z,14.80
2018-09-24T15:47:27.331Z,14.90
2018-09-24T15:50:01.382Z,14.90
2018-09-24T15:52:35.205Z,14.80
2018-09-24T15:55:09.423Z,14.70
2018-09-24T15:57:43.193Z,14.80
2018-09-24T16:00:17.096Z,14.90
2018-09-24T16:02:51.136Z,14.90
2018-09-24T16:05:25.043Z,14.80
2018-09-24T16:07:58.903Z,14.80
2018-09-24T16:10:32.699Z,14.70
2018-09-24T16:13:06.436Z,14.70
2018-09-24T16:15:40.180Z,14.70
2018-09-24T16:18:13.954Z,14.70
2018-09-24T16:20:47.750Z,14.60
2018-09-24T16:23:21.414Z,14.60
2018-09-24T16:25:55.414Z,14.60
2018-09-24T16:28:29.159Z,14.50
2018-09-24T16:31:02.893Z,14.40
2018-09-24T16:33:36.875Z,14.40
2018-09-24T16:36:10.714Z,14.30
2018-09-24T16:38:44.533Z,14.30
2018-09-24T16:41:18.424Z,14.20
2018-09-24T16:43:52.231Z,14.20
2018-09-24T16:46:25.980Z,14.20
2018-09-24T16:48:59.683Z,14.10
2018-09-24T16:51:33.601Z,14.10
2018-09-24T16:54:07.429Z,14.10
2018-09-24T16:56:42.066Z,14.00
2018-09-24T16:59:15.860Z,14.00
2018-09-24T17:01:49.758Z,14.00
2018-09-24T17:04:23.846Z,14.00
2018-09-24T17:06:57.596Z,14.00
2018-09-24T17:09:31.319Z,13.90
2018-09-24T17:12:05.778Z,13.90
2018-09-24T17:14:39.515Z,13.80
2018-09-24T17:17:13.447Z,13.70
2018-09-24T17:19:47.398Z,13.70
2018-09-24T17:22:21.297Z,13.60
2018-09-24T17:24:55.095Z,13.60
2018-09-24T17:27:28.862Z,13.60
2018-09-24T17:30:02.710Z,13.60
2018-09-24T17:32:36.429Z,13.50
2018-09-24T17:35:10.427Z,13.50
2018-09-24T17:37:44.319Z,13.40
2018-09-24T17:40:18.107Z,13.40
2018-09-24T17:42:51.799Z,13.30
2018-09-24T17:45:25.567Z,13.30
2018-09-24T17:48:00.001Z,13.20
2018-09-24T17:50:33.708Z,13.10
2018-09-24T17:53:07.642Z,13.00
2018-09-24T17:55:41.372Z,13.00
2018-09-24T17:58:15.205Z,13.00
2018-09-24T18:00:49.138Z,13.00
2018-09-24T18:03:22.849Z,13.00
2018-09-24T18:05:56.660Z,13.00
2018-09-24T18:08:30.405Z,13.00
2018-09-24T18:11:04.111Z,13.00
2018-09-24T18:13:38.078Z,13.00
2018-09-24T18:16:12.328Z,13.00
2018-09-24T18:18:46.245Z,12.90
2018-09-24T18:21:19.956Z,12.90
2018-09-24T18:23:53.864Z,12.80
2018-09-24T18:26:27.709Z,12.70
2018-09-24T18:29:02.496Z,12.70
2018-09-24T18:31:36.408Z,12.60
2018-09-24T18:34:10.072Z,12.50
2018-09-24T18:36:43.805Z,12.50
2018-09-24T18:39:17.832Z,12.40
2018-09-24T18:41:51.568Z,12.30
2018-09-24T18:44:25.459Z,12.20
2018-09-24T18:46:59.246Z,12.10
2018-09-24T18:49:33.078Z,12.10
2018-09-24T18:52:06.822Z,11.90
2018-09-24T18:54:40.876Z,11.80
2018-09-24T18:57:14.924Z,11.70
2018-09-24T18:59:48.761Z,11.70
2018-09-24T19:02:22.662Z,11.70
2018-09-24T19:04:56.672Z,11.60
2018-09-24T19:07:30.621Z,11.60
2018-09-24T19:10:04.611Z,11.50
2018-09-24T19:12:38.375Z,11.50
2018-09-24T19:15:12.507Z,11.60
2018-09-24T19:17:46.445Z,11.50
2018-09-24T19:20:20.320Z,11.50
2018-09-24T19:22:54.871Z,11.50
2018-09-24T19:25:28.851Z,11.40
2018-09-24T19:28:02.548Z,11.40
2018-09-24T19:30:36.402Z,11.30
2018-09-24T19:33:10.343Z,11.00
2018-09-24T19:35:44.343Z,10.90
2018-09-24T19:38:18.253Z,11.00
2018-09-24T19:40:52.123Z,11.00
2018-09-24T19:43:25.850Z,11.10
2018-09-24T19:46:00.026Z,11.10
2018-09-24T19:48:33.878Z,11.10
2018-09-24T19:51:07.688Z,11.10
2018-09-24T19:53:41.549Z,11.10
2018-09-24T19:56:15.282Z,11.10
2018-09-24T19:58:49.363Z,11.10
2018-09-24T20:01:23.322Z,11.00
2018-09-24T20:03:57.261Z,10.90
2018-09-24T20:06:31.139Z,10.80
2018-09-24T20:09:05.146Z,10.80
2018-09-24T20:11:38.846Z,10.70
2018-09-24T20:14:12.802Z,10.60
2018-09-24T20:16:46.837Z,10.60
2018-09-24T20:19:20.713Z,10.50
2018-09-24T20:21:54.561Z,10.50
2018-09-24T20:24:28.556Z,10.50
2018-09-24T20:27:02.229Z,10.50
2018-09-24T20:29:36.065Z,10.50
2018-09-24T20:32:09.762Z,10.50
2018-09-24T20:34:43.657Z,10.40
2018-09-24T20:37:17.518Z,10.40
2018-09-24T20:39:51.479Z,10.40
2018-09-24T20:42:25.447Z,10.40
2018-09-24T20:44:59.145Z,10.40
2018-09-24T20:47:33.161Z,10.30
2018-09-24T20:50:07.776Z,10.30
2018-09-24T20:52:41.592Z,10.30
2018-09-24T20:55:15.413Z,10.40
2018-09-24T20:57:49.231Z,10.40
2018-09-24T21:00:22.950Z,10.30
2018-09-24T21:02:56.770Z,10.30
2018-09-24T21:05:37.351Z,10.20
2018-09-24T21:08:11.353Z,10.20
2018-09-24T21:10:45.113Z,10.10
2018-09-24T21:13:18.827Z,10.10
2018-09-24T21:15:52.858Z,10.10
2018-09-24T21:18:26.750Z,10.10
2018-09-24T21:21:00.915Z,10.20
2018-09-24T21:23:34.774Z,10.10
2018-09-24T21:26:08.720Z,10.10
2018-09-24T21:28:42.534Z,10.10
2018-09-24T21:31:16.452Z,10.20
2018-09-24T21:33:50.435Z,10.20
2018-09-24T21:36:24.503Z,10.20
2018-09-24T21:38:58.207Z,10.00
2018-09-24T21:41:32.149Z,10.00
2018-09-24T21:44:06.026Z,9.90
2018-09-24T21:46:39.991Z,9.90
2018-09-24T21:49:13.821Z,9.90
2018-09-24T21:51:47.580Z,9.90
2018-09-24T21:54:21.552Z,10.00
2018-09-24T21:56:55.385Z,10.00
2018-09-24T21:59:29.337Z,10.00
2018-09-24T22:02:03.195Z,9.90
2018-09-24T22:04:37.020Z,9.70
2018-09-24T22:07:11.089Z,9.60
2018-09-24T22:09:44.902Z,9.50
2018-09-24T22:12:18.853Z,9.50
2018-09-24T22:14:52.607Z,9.40
2018-09-24T22:17:26.504Z,9.40
2018-09-24T22:20:01.457Z,9.40
2018-09-24T22:22:35.455Z,9.40
2018-09-24T22:25:09.378Z,9.40
2018-09-24T22:27:43.221Z,9.40
2018-09-24T22:30:17.031Z,9.40
2018-09-24T22:32:50.836Z,9.40
2018-09-24T22:35:24.518Z,9.50
2018-09-24T22:37:58.410Z,9.50
2018-09-24T22:40:32.105Z,9.60
2018-09-24T22:43:05.910Z,9.50
2018-09-24T22:45:39.766Z,9.40
2018-09-24T22:48:13.542Z,9.40
2018-09-24T22:50:47.460Z,9.30
2018-09-24T22:53:21.155Z,9.30
2018-09-24T22:55:54.984Z,9.30
2018-09-24T22:58:28.694Z,9.20
2018-09-24T23:01:02.474Z,9.20
2018-09-24T23:03:36.395Z,9.20
2018-09-24T23:06:10.234Z,9.20
2018-09-24T23:08:43.958Z,9.10
2018-09-24T23:11:17.832Z,9.10
2018-09-24T23:13:51.514Z,9.10
2018-09-24T23:16:25.235Z,9.10
2018-09-24T23:18:59.094Z,9.10
2018-09-24T23:21:32.944Z,9.00
2018-09-24T23:24:06.726Z,9.00
2018-09-24T23:26:40.562Z,8.90
2018-09-24T23:29:14.468Z,8.90
2018-09-24T23:31:48.717Z,9.00
2018-09-24T23:34:22.641Z,9.00
2018-09-24T23:36:56.355Z,9.10
2018-09-24T23:39:30.003Z,9.10
2018-09-24T23:42:03.807Z,9.00
2018-09-24T23:44:37.684Z,8.90
2018-09-24T23:47:11.748Z,8.80
2018-09-24T23:49:45.829Z,8.70
2018-09-24T23:52:19.554Z,8.70
2018-09-24T23:54:53.392Z,8.60
2018-09-24T23:57:27.219Z,8.60
